createdAt,value
2022-10-17T00:00:17.171Z,72.23
2022-10-17T00:05:25.493Z,72.31
2022-10-17T00:10:33.285Z,72.42
2022-10-17T00:15:45.086Z,72.45
2022-10-17T00:20:52.840Z,72.37
2022-10-17T00:26:07.198Z,71.78
2022-10-17T00:31:14.676Z,71.31
2022-10-17T00:36:24.138Z,70.61
2022-10-17T00:41:35.521Z,70.06
2022-10-17T00:46:45.776Z,69.63
2022-10-17T00:51:56.055Z,69.78
2022-10-17T00:57:04.040Z,68.94
2022-10-17T01:02:14.994Z,69.25
2022-10-17T01:07:22.406Z,69.17
2022-10-17T01:12:38.820Z,69.06
2022-10-17T01:18:00.917Z,68.37
2022-10-17T01:23:29.800Z,68.12
2022-10-17T01:29:07.680Z,67.56
2022-10-17T01:34:21.022Z,67.06
2022-10-17T01:39:40.067Z,66.75
2022-10-17T01:44:57.522Z,66.65
2022-10-17T01:50:09.604Z,66.25
2022-10-17T01:55:22.161Z,66.65
2022-10-17T02:00:32.692Z,66.54
2022-10-17T02:05:42.846Z,66.74
2022-10-17T02:10:56.643Z,67.46
2022-10-17T02:16:22.912Z,67.51
2022-10-17T02:21:37.051Z,67.67
2022-10-17T02:26:52.657Z,67.38
2022-10-17T02:32:06.375Z,67.52
2022-10-17T02:37:17.080Z,67.65
2022-10-17T02:42:26.640Z,67.99
2022-10-17T02:47:38.797Z,67.95
2022-10-17T02:52:53.569Z,68.60
2022-10-17T02:58:06.808Z,68.55
2022-10-17T03:03:26.572Z,68.77
2022-10-17T03:08:34.347Z,69.08
2022-10-17T03:13:42.038Z,69.25
2022-10-17T03:18:50.394Z,68.93
2022-10-17T03:23:58.285Z,68.89
2022-10-17T03:29:05.996Z,68.92
2022-10-17T03:34:14.214Z,69.11
2022-10-17T03:39:21.600Z,68.97
2022-10-17T03:44:29.012Z,68.92
2022-10-17T03:49:36.756Z,68.95
2022-10-17T03:54:45.210Z,68.73
2022-10-17T03:59:53.787Z,68.88
2022-10-17T04:05:02.051Z,68.39
2022-10-17T04:10:11.686Z,68.85
2022-10-17T04:15:20.137Z,68.64
2022-10-17T04:20:28.170Z,68.45
2022-10-17T04:25:38.109Z,68.47
2022-10-17T04:30:45.782Z,68.64
2022-10-17T04:36:01.341Z,68.76
2022-10-17T04:41:13.314Z,68.73
2022-10-17T04:46:20.651Z,68.84
2022-10-17T04:51:29.040Z,68.75
2022-10-17T04:56:52.127Z,69.07
2022-10-17T05:02:01.525Z,68.81
2022-10-17T05:07:11.245Z,68.84
2022-10-17T05:12:35.496Z,68.91
2022-10-17T05:17:43.746Z,68.94
2022-10-17T05:22:52.199Z,69.05
2022-10-17T05:28:02.461Z,69.25
2022-10-17T05:33:10.751Z,69.23
2022-10-17T05:38:19.375Z,69.35
2022-10-17T05:43:28.300Z,69.07
2022-10-17T05:48:36.572Z,69.74
2022-10-17T05:53:45.340Z,69.56
2022-10-17T05:59:01.026Z,69.71
2022-10-17T06:04:29.895Z,70.14
2022-10-17T06:09:38.208Z,70.68
2022-10-17T06:14:46.867Z,70.82
2022-10-17T06:19:55.690Z,70.82
2022-10-17T06:25:04.270Z,71.15
2022-10-17T06:30:13.867Z,71.52
2022-10-17T06:35:22.230Z,71.61
2022-10-17T06:40:30.641Z,71.48
2022-10-17T06:45:40.167Z,71.54
2022-10-17T06:51:10.472Z,71.62
2022-10-17T06:56:28.399Z,71.55
2022-10-17T07:02:08.968Z,71.88
2022-10-17T07:07:17.990Z,71.65
2022-10-17T07:12:26.586Z,71.93
2022-10-17T07:17:34.982Z,72.72
2022-10-17T07:22:43.031Z,73.00
2022-10-17T07:27:52.081Z,74.03
2022-10-17T07:33:01.941Z,73.52
2022-10-17T07:38:10.058Z,73.26
2022-10-17T07:43:18.464Z,73.44
2022-10-17T07:48:26.906Z,73.28
2022-10-17T07:53:36.438Z,73.38
2022-10-17T07:58:44.421Z,73.55
2022-10-17T08:03:52.759Z,73.65
2022-10-17T08:09:02.116Z,73.46
2022-10-17T08:14:10.348Z,73.30
2022-10-17T08:19:17.387Z,73.30
2022-10-17T08:24:25.638Z,73.60
2022-10-17T08:29:34.541Z,73.84
2022-10-17T08:34:42.988Z,73.87
2022-10-17T08:39:50.272Z,73.90
2022-10-17T08:45:08.489Z,74.14
2022-10-17T08:50:23.766Z,74.43
2022-10-17T08:55:41.448Z,74.23
2022-10-17T09:00:59.917Z,73.86
2022-10-17T09:06:20.934Z,73.70
2022-10-17T09:11:47.099Z,73.37
2022-10-17T09:17:05.740Z,73.25
2022-10-17T09:22:18.838Z,72.78
2022-10-17T09:27:34.059Z,72.35
2022-10-17T09:32:43.424Z,72.02
2022-10-17T09:37:52.586Z,71.84
2022-10-17T09:43:01.595Z,71.52
2022-10-17T09:48:19.916Z,71.00
2022-10-17T09:53:32.633Z,70.15
2022-10-17T09:58:48.255Z,69.95
2022-10-17T10:04:13.588Z,69.41
2022-10-17T10:09:27.323Z,68.46
2022-10-17T10:14:37.350Z,67.75
2022-10-17T10:19:53.986Z,66.54
2022-10-17T10:25:17.947Z,66.06
2022-10-17T10:30:36.157Z,65.90
2022-10-17T10:35:58.309Z,65.27
2022-10-17T10:41:09.680Z,64.08
2022-10-17T10:46:23.866Z,63.64
2022-10-17T10:51:38.043Z,63.31
2022-10-17T10:56:51.117Z,63.01
2022-10-17T11:02:05.482Z,62.61
2022-10-17T11:07:15.686Z,62.98
2022-10-17T11:12:26.855Z,63.12
2022-10-17T11:17:42.729Z,62.89
2022-10-17T11:22:54.249Z,62.31
2022-10-17T11:28:04.852Z,62.31
2022-10-17T11:33:18.471Z,62.50
2022-10-17T11:38:38.087Z,62.72
2022-10-17T11:43:53.539Z,62.74
2022-10-17T11:49:19.851Z,62.76
2022-10-17T11:54:36.301Z,62.33
2022-10-17T12:00:04.884Z,61.32
2022-10-17T12:05:24.124Z,61.18
2022-10-17T12:10:41.836Z,60.80
2022-10-17T12:15:49.754Z,60.42
2022-10-17T12:21:02.337Z,60.36
2022-10-17T12:26:11.880Z,60.14
2022-10-17T12:31:33.644Z,60.16
2022-10-17T12:36:43.818Z,59.87
2022-10-17T12:42:00.397Z,59.67
2022-10-17T12:47:40.791Z,59.46
2022-10-17T12:53:08.048Z,59.06
2022-10-17T12:58:18.201Z,59.26
2022-10-17T13:03:29.610Z,59.23
2022-10-17T13:08:40.897Z,59.27
2022-10-17T13:13:50.313Z,58.96
2022-10-17T13:18:58.978Z,59.08
2022-10-17T13:24:24.567Z,59.07
2022-10-17T13:29:33.344Z,59.19
2022-10-17T13:34:41.815Z,59.50
2022-10-17T13:40:00.428Z,59.68
2022-10-17T13:45:22.241Z,59.80
2022-10-17T13:50:45.787Z,60.12
2022-10-17T13:56:22.939Z,60.33
2022-10-17T14:01:30.311Z,60.43
2022-10-17T14:06:44.981Z,60.66
2022-10-17T14:12:05.228Z,60.87
2022-10-17T14:17:23.706Z,61.20
2022-10-17T14:22:36.657Z,61.41
2022-10-17T14:28:03.002Z,61.56
2022-10-17T14:33:15.750Z,61.68
2022-10-17T14:38:24.604Z,61.98
2022-10-17T14:43:34.442Z,62.00
2022-10-17T14:48:43.702Z,62.14
2022-10-17T14:54:05.706Z,62.20
2022-10-17T14:59:30.171Z,62.61
2022-10-17T15:04:46.418Z,62.76
2022-10-17T15:09:55.359Z,62.81
2022-10-17T15:15:02.936Z,63.08
2022-10-17T15:20:17.767Z,63.11
2022-10-17T15:25:25.883Z,63.17
2022-10-17T15:30:38.269Z,63.20
2022-10-17T15:35:46.235Z,63.34
2022-10-17T15:40:54.313Z,63.39
2022-10-17T15:46:04.307Z,63.61
2022-10-17T15:51:12.607Z,63.72
2022-10-17T15:56:24.980Z,64.00
2022-10-17T16:01:35.321Z,64.12
2022-10-17T16:06:44.665Z,64.27
2022-10-17T16:11:52.719Z,64.58
2022-10-17T16:17:00.721Z,64.84
2022-10-17T16:22:13.316Z,64.94
2022-10-17T16:27:22.541Z,65.18
2022-10-17T16:32:30.687Z,65.13
2022-10-17T16:37:38.897Z,65.22
2022-10-17T16:42:47.470Z,65.35
2022-10-17T16:47:56.222Z,65.48
2022-10-17T16:53:04.680Z,65.57
2022-10-17T16:58:12.804Z,65.67
2022-10-17T17:03:20.890Z,65.82
2022-10-17T17:08:29.751Z,65.96
2022-10-17T17:13:37.941Z,65.99
2022-10-17T17:18:47.173Z,66.17
2022-10-17T17:23:54.392Z,66.15
2022-10-17T17:29:03.262Z,66.20
2022-10-17T17:34:14.286Z,66.24
2022-10-17T17:39:25.403Z,66.22
2022-10-17T17:44:33.606Z,66.33
2022-10-17T17:49:41.414Z,66.33
2022-10-17T17:54:50.874Z,66.29
2022-10-17T17:59:59.213Z,66.28
2022-10-17T18:05:08.812Z,66.40
2022-10-17T18:10:17.280Z,66.42
2022-10-17T18:15:25.369Z,66.41
2022-10-17T18:20:34.343Z,66.44
2022-10-17T18:25:42.578Z,66.36
2022-10-17T18:30:50.825Z,66.56
2022-10-17T18:35:59.855Z,66.49
2022-10-17T18:41:12.238Z,66.53
2022-10-17T18:46:21.885Z,66.52
2022-10-17T18:51:30.173Z,66.56
2022-10-17T18:56:38.305Z,66.56
2022-10-17T19:01:46.946Z,66.66
2022-10-17T19:06:54.950Z,66.53
2022-10-17T19:12:03.286Z,66.55
2022-10-17T19:17:11.769Z,66.62
2022-10-17T19:22:19.885Z,66.63
2022-10-17T19:27:28.495Z,66.68
2022-10-17T19:32:37.080Z,66.67
2022-10-17T19:37:44.645Z,66.75
2022-10-17T19:42:52.778Z,66.81
2022-10-17T19:48:00.583Z,66.81
2022-10-17T19:53:08.463Z,66.74
2022-10-17T19:58:16.859Z,66.88
2022-10-17T20:03:25.592Z,66.70
2022-10-17T20:08:32.628Z,66.85
2022-10-17T20:13:41.139Z,66.82
2022-10-17T20:18:49.180Z,66.81
2022-10-17T20:23:57.680Z,66.82
2022-10-17T20:29:09.015Z,66.84
2022-10-17T20:34:18.957Z,66.70
2022-10-17T20:39:27.002Z,66.75
2022-10-17T20:44:35.278Z,66.59
2022-10-17T20:49:43.302Z,66.50
2022-10-17T20:54:52.169Z,66.44
2022-10-17T20:59:59.456Z,66.29
2022-10-17T21:05:08.216Z,66.43
2022-10-17T21:10:35.423Z,66.31
2022-10-17T21:15:44.744Z,66.43
2022-10-17T21:20:53.085Z,66.36
2022-10-17T21:26:07.415Z,66.32
2022-10-17T21:31:18.111Z,66.24
2022-10-17T21:36:27.065Z,66.52
2022-10-17T21:41:35.572Z,66.51
2022-10-17T21:46:43.924Z,66.43
2022-10-17T21:51:52.797Z,66.52
2022-10-17T21:57:00.717Z,66.71
2022-10-17T22:02:08.926Z,66.55
2022-10-17T22:07:17.194Z,66.48
2022-10-17T22:12:25.106Z,66.50
2022-10-17T22:17:32.966Z,66.84
2022-10-17T22:22:41.072Z,66.81
2022-10-17T22:27:49.041Z,66.79
2022-10-17T22:32:56.914Z,66.84
2022-10-17T22:38:04.802Z,66.94
2022-10-17T22:43:12.772Z,66.87
2022-10-17T22:48:20.631Z,66.76
2022-10-17T22:53:30.150Z,66.88
2022-10-17T22:58:38.730Z,66.90
2022-10-17T23:03:47.483Z,67.09
2022-10-17T23:08:55.906Z,67.05
2022-10-17T23:14:04.590Z,66.81
2022-10-17T23:19:12.167Z,66.94
2022-10-17T23:24:20.180Z,67.01
2022-10-17T23:29:33.081Z,67.24
2022-10-17T23:34:40.932Z,67.17
2022-10-17T23:39:48.748Z,67.22
2022-10-17T23:44:56.665Z,67.44
2022-10-17T23:50:04.699Z,67.30
2022-10-17T23:55:14.070Z,67.41
